createdAt,value
2019-05-07T00:00:52.711Z,10.90
2019-05-07T00:03:21.946Z,8.68
2019-05-07T00:05:48.035Z,10.82
2019-05-07T00:08:14.335Z,10.10
2019-05-07T00:10:42.562Z,13.30
2019-05-07T00:13:08.744Z,10.45
2019-05-07T00:15:35.023Z,10.25
2019-05-07T00:18:03.164Z,9.70
2019-05-07T00:20:29.459Z,8.98
2019-05-07T00:22:55.759Z,11.33
2019-05-07T00:25:22.895Z,9.68
2019-05-07T00:27:49.186Z,10.25
2019-05-07T00:30:18.704Z,15.18
2019-05-07T00:32:45.307Z,9.88
2019-05-07T00:35:13.732Z,12.23
2019-05-07T00:37:48.185Z,12.10
2019-05-07T00:40:33.327Z,10.28
2019-05-07T00:43:04.230Z,10.05
2019-05-07T00:45:32.679Z,15.48
2019-05-07T00:47:58.976Z,11.25
2019-05-07T00:50:27.261Z,12.70
2019-05-07T00:52:53.924Z,12.75
2019-05-07T00:55:20.175Z,13.05
2019-05-07T00:57:46.445Z,9.28
2019-05-07T01:00:13.388Z,9.08
2019-05-07T01:02:39.623Z,10.10
2019-05-07T01:05:06.154Z,10.30
2019-05-07T01:07:32.589Z,10.43
2019-05-07T01:09:58.902Z,14.90
2019-05-07T01:12:25.175Z,11.95
2019-05-07T01:14:52.804Z,11.65
2019-05-07T01:17:19.347Z,10.15
2019-05-07T01:19:45.635Z,11.63
2019-05-07T01:22:12.679Z,13.20
2019-05-07T01:24:38.927Z,11.05
2019-05-07T01:27:06.401Z,14.23
2019-05-07T01:29:32.951Z,12.75
2019-05-07T01:34:57.849Z,11.20
2019-05-07T01:37:24.167Z,11.03
2019-05-07T01:39:52.922Z,13.25
2019-05-07T01:42:19.512Z,10.63
2019-05-07T01:44:45.881Z,11.03
2019-05-07T01:47:13.061Z,10.50
2019-05-07T01:49:42.003Z,12.88
2019-05-07T01:52:08.007Z,13.98
2019-05-07T01:54:34.393Z,13.22
2019-05-07T01:57:02.625Z,12.00
2019-05-07T01:59:28.728Z,11.20
2019-05-07T02:01:57.349Z,8.03
2019-05-07T02:04:28.443Z,8.48
2019-05-07T02:07:05.675Z,12.55
2019-05-07T02:09:43.058Z,10.43
2019-05-07T02:12:28.435Z,10.05
2019-05-07T02:14:54.719Z,12.75
2019-05-07T02:17:22.790Z,9.83
2019-05-07T02:19:49.826Z,8.88
2019-05-07T02:22:16.119Z,9.20
2019-05-07T02:24:43.412Z,10.95
2019-05-07T02:27:09.896Z,11.70
2019-05-07T02:29:38.197Z,12.15
2019-05-07T02:32:04.973Z,7.37
2019-05-07T02:34:34.306Z,10.18
2019-05-07T02:37:03.792Z,10.88
2019-05-07T02:39:36.259Z,9.18
2019-05-07T02:42:03.687Z,8.88
2019-05-07T02:44:33.673Z,12.37
2019-05-07T02:47:04.728Z,13.25
2019-05-07T02:49:35.625Z,12.07
2019-05-07T02:52:13.592Z,9.03
2019-05-07T02:54:58.731Z,11.22
2019-05-07T02:57:26.388Z,8.85
2019-05-07T02:59:54.293Z,11.03
2019-05-07T03:02:24.102Z,9.13
2019-05-07T03:04:49.272Z,12.85
2019-05-07T03:07:15.734Z,12.80
2019-05-07T03:09:43.205Z,13.72
2019-05-07T03:12:12.945Z,16.62
2019-05-07T03:14:38.194Z,12.53
2019-05-07T03:17:06.573Z,12.75
2019-05-07T03:19:34.839Z,9.28
2019-05-07T03:22:03.750Z,13.60
2019-05-07T03:24:43.108Z,11.22
2019-05-07T03:27:08.391Z,11.78
2019-05-07T03:29:36.632Z,10.32
2019-05-07T03:32:19.973Z,10.95
2019-05-07T03:34:48.258Z,14.55
2019-05-07T03:37:16.725Z,14.65
2019-05-07T03:39:43.523Z,13.72
2019-05-07T03:42:12.759Z,15.50
2019-05-07T03:44:58.355Z,9.80
2019-05-07T03:47:29.216Z,14.25
2019-05-07T03:49:55.450Z,14.55
2019-05-07T03:52:24.431Z,11.90
2019-05-07T03:54:50.044Z,12.23
2019-05-07T03:57:16.517Z,13.65
2019-05-07T03:59:43.369Z,11.40
2019-05-07T04:02:14.197Z,11.22
2019-05-07T04:04:43.023Z,9.78
2019-05-07T04:07:14.087Z,12.07
2019-05-07T04:09:43.473Z,14.65
2019-05-07T04:12:08.741Z,12.88
2019-05-07T04:14:35.031Z,16.95
2019-05-07T04:17:14.420Z,10.80
2019-05-07T04:19:32.637Z,12.18
2019-05-07T04:21:57.835Z,11.10
2019-05-07T04:24:26.170Z,12.15
2019-05-07T04:27:09.373Z,14.95
2019-05-07T04:29:35.877Z,12.68
2019-05-07T04:32:03.349Z,12.85
2019-05-07T04:34:52.952Z,15.63
2019-05-07T04:37:18.256Z,11.30
2019-05-07T04:39:54.110Z,12.93
2019-05-07T04:42:24.397Z,12.90
2019-05-07T04:44:53.731Z,10.90
2019-05-07T04:47:32.680Z,11.97
2019-05-07T04:49:47.143Z,11.60
2019-05-07T04:52:16.137Z,12.68
2019-05-07T04:54:43.708Z,10.48
2019-05-07T04:57:25.187Z,11.83
2019-05-07T04:59:53.427Z,10.60
2019-05-07T05:02:23.071Z,9.80
2019-05-07T05:04:49.586Z,13.83
2019-05-07T05:07:15.862Z,11.45
2019-05-07T05:09:42.749Z,12.18
2019-05-07T05:12:09.109Z,11.18
2019-05-07T05:14:35.466Z,10.03
2019-05-07T05:17:02.114Z,12.20
2019-05-07T05:19:28.553Z,18.80
2019-05-07T05:21:56.733Z,12.80
2019-05-07T05:24:24.901Z,13.60
2019-05-07T05:26:52.554Z,11.40
2019-05-07T05:29:19.333Z,12.53
2019-05-07T05:31:45.603Z,12.70
2019-05-07T05:34:13.069Z,12.37
2019-05-07T05:36:42.437Z,12.50
2019-05-07T05:39:09.267Z,11.05
2019-05-07T05:41:38.025Z,10.85
2019-05-07T05:44:06.437Z,7.10
2019-05-07T05:46:33.677Z,12.93
2019-05-07T05:48:59.978Z,16.87
2019-05-07T05:51:39.243Z,11.63
2019-05-07T05:54:25.599Z,14.93
2019-05-07T05:57:06.105Z,13.15
2019-05-07T05:59:55.240Z,14.20
2019-05-07T06:02:25.687Z,10.28
2019-05-07T06:04:57.123Z,11.40
2019-05-07T06:07:42.620Z,11.80
2019-05-07T06:10:27.327Z,8.88
2019-05-07T06:13:01.775Z,12.07
2019-05-07T06:15:32.821Z,10.93
2019-05-07T06:18:17.695Z,14.63
2019-05-07T06:20:39.805Z,12.20
2019-05-07T06:23:16.794Z,9.63
2019-05-07T06:25:48.819Z,10.80
2019-05-07T06:28:15.047Z,13.25
2019-05-07T06:30:41.896Z,12.80
2019-05-07T06:33:08.517Z,13.32
2019-05-07T06:35:35.028Z,15.15
2019-05-07T06:38:03.352Z,10.88
2019-05-07T06:40:34.640Z,12.23
2019-05-07T06:43:09.091Z,11.35
2019-05-07T06:45:43.402Z,10.35
2019-05-07T06:48:09.880Z,8.08
2019-05-07T06:50:36.097Z,10.85
2019-05-07T06:53:02.831Z,13.43
2019-05-07T06:55:29.442Z,12.53
2019-05-07T06:57:55.796Z,12.85
2019-05-07T07:00:26.381Z,10.18
2019-05-07T07:03:06.677Z,10.43
2019-05-07T07:05:35.214Z,12.20
2019-05-07T07:08:12.345Z,11.12
2019-05-07T07:10:58.124Z,11.08
2019-05-07T07:13:26.476Z,10.90
2019-05-07T07:15:53.140Z,9.23
2019-05-07T07:18:19.476Z,8.68
2019-05-07T07:20:48.412Z,10.65
2019-05-07T07:23:13.905Z,9.03
2019-05-07T07:25:40.355Z,11.08
2019-05-07T07:28:06.737Z,8.53
2019-05-07T07:30:34.992Z,6.28
2019-05-07T07:33:03.406Z,8.40
2019-05-07T07:35:32.028Z,9.13
2019-05-07T07:37:58.084Z,8.25
2019-05-07T07:40:29.280Z,10.53
2019-05-07T07:42:55.592Z,8.03
2019-05-07T07:45:23.082Z,9.25
2019-05-07T07:47:49.426Z,10.95
2019-05-07T07:50:16.108Z,12.78
2019-05-07T07:52:42.620Z,12.20
2019-05-07T07:55:12.627Z,9.53
2019-05-07T07:57:49.313Z,10.60
2019-05-07T08:00:23.280Z,11.65
2019-05-07T08:02:53.450Z,7.87
2019-05-07T08:05:22.748Z,10.38
2019-05-07T08:07:49.048Z,9.15
2019-05-07T08:10:15.547Z,7.67
2019-05-07T08:12:42.246Z,7.92
2019-05-07T08:15:17.206Z,8.15
2019-05-07T08:17:37.275Z,8.40
2019-05-07T08:20:05.420Z,11.43
2019-05-07T08:22:32.945Z,9.78
2019-05-07T08:24:59.374Z,9.55
2019-05-07T08:27:25.852Z,8.65
2019-05-07T08:29:52.568Z,8.40
2019-05-07T08:32:23.709Z,6.42
2019-05-07T08:34:52.215Z,5.37
2019-05-07T08:37:18.470Z,6.92
2019-05-07T08:39:44.831Z,6.05
2019-05-07T08:42:12.318Z,7.83
2019-05-07T08:44:58.959Z,6.45
2019-05-07T08:47:31.806Z,7.78
2019-05-07T08:49:58.117Z,7.22
2019-05-07T08:52:26.976Z,6.70
2019-05-07T08:54:53.263Z,7.28
2019-05-07T08:57:19.493Z,7.62
2019-05-07T08:59:57.485Z,5.33
2019-05-07T09:02:14.148Z,6.47
2019-05-07T09:04:41.746Z,6.28
2019-05-07T09:07:08.253Z,8.18
2019-05-07T09:09:34.966Z,7.20
2019-05-07T09:12:03.069Z,6.25
2019-05-07T09:14:29.421Z,6.50
2019-05-07T09:16:55.988Z,6.80
2019-05-07T09:19:22.240Z,10.03
2019-05-07T09:21:48.703Z,7.00
2019-05-07T09:24:15.167Z,5.72
2019-05-07T09:26:59.851Z,6.80
2019-05-07T09:29:34.452Z,7.00
2019-05-07T09:32:12.063Z,7.25
2019-05-07T09:34:41.680Z,6.62
2019-05-07T09:37:12.650Z,6.40
2019-05-07T09:39:39.113Z,6.95
2019-05-07T09:42:05.468Z,6.47
2019-05-07T09:44:32.520Z,6.42
2019-05-07T09:46:59.140Z,6.95
2019-05-07T09:49:25.427Z,6.78
2019-05-07T09:51:52.077Z,5.33
2019-05-07T09:54:18.510Z,7.45
2019-05-07T09:56:44.918Z,6.58
2019-05-07T09:59:12.569Z,7.00
2019-05-07T10:01:39.145Z,4.45
2019-05-07T10:04:05.484Z,6.05
2019-05-07T10:06:32.224Z,5.17
2019-05-07T10:08:58.650Z,5.60
2019-05-07T10:11:33.077Z,7.10
2019-05-07T10:14:07.149Z,6.22
2019-05-07T10:16:35.607Z,5.62
2019-05-07T10:19:01.995Z,5.47
2019-05-07T10:21:28.474Z,6.50
2019-05-07T10:23:55.216Z,6.55
2019-05-07T10:26:22.661Z,4.72
2019-05-07T10:28:49.107Z,5.67
2019-05-07T10:31:15.829Z,3.70
2019-05-07T10:33:42.264Z,4.42
2019-05-07T10:36:08.809Z,6.40
2019-05-07T10:38:35.348Z,5.42
2019-05-07T10:41:02.858Z,6.67
2019-05-07T10:43:29.800Z,6.37
2019-05-07T10:46:07.010Z,5.83
2019-05-07T10:48:44.234Z,7.92
2019-05-07T10:51:10.666Z,8.40
2019-05-07T10:53:37.599Z,5.37
2019-05-07T10:56:03.975Z,5.83
2019-05-07T10:58:32.148Z,5.92
2019-05-07T11:00:58.742Z,5.37
2019-05-07T11:03:25.253Z,6.08
2019-05-07T11:05:51.523Z,5.47
2019-05-07T11:08:18.066Z,4.70
2019-05-07T11:10:44.446Z,5.92
2019-05-07T11:13:12.773Z,4.08
2019-05-07T11:15:42.791Z,5.60
2019-05-07T11:18:12.652Z,5.60
2019-05-07T11:20:47.346Z,4.50
2019-05-07T11:23:07.510Z,4.80
2019-05-07T11:25:34.330Z,3.70
2019-05-07T11:28:02.676Z,4.10
2019-05-07T11:30:29.041Z,5.17
2019-05-07T11:32:55.331Z,3.00
2019-05-07T11:35:23.048Z,6.33
2019-05-07T11:37:51.855Z,3.55
2019-05-07T11:40:19.971Z,5.12
2019-05-07T11:43:05.012Z,6.37
2019-05-07T11:45:38.965Z,5.50
2019-05-07T11:48:05.443Z,6.28
2019-05-07T11:50:33.738Z,5.10
2019-05-07T11:53:02.008Z,7.78
2019-05-07T11:55:28.653Z,5.33
2019-05-07T11:57:54.890Z,6.22
2019-05-07T12:00:23.748Z,4.60
2019-05-07T12:02:51.875Z,7.30
2019-05-07T12:05:18.248Z,6.83
2019-05-07T12:07:44.528Z,5.58
2019-05-07T12:10:12.162Z,5.25
2019-05-07T12:12:40.581Z,5.35
2019-05-07T12:15:07.137Z,4.90
2019-05-07T12:17:33.380Z,4.50
2019-05-07T12:20:02.207Z,4.15
2019-05-07T12:22:46.795Z,3.25
2019-05-07T12:25:14.654Z,2.60
2019-05-07T12:27:41.338Z,5.75
2019-05-07T12:30:12.065Z,4.12
2019-05-07T12:32:52.266Z,4.25
2019-05-07T12:35:18.945Z,5.30
2019-05-07T12:37:47.849Z,3.67
2019-05-07T12:40:14.608Z,5.50
2019-05-07T12:42:42.403Z,3.08
2019-05-07T12:45:09.919Z,5.28
2019-05-07T12:47:36.371Z,4.25
2019-05-07T12:50:03.228Z,7.30
2019-05-07T12:52:34.125Z,8.98
2019-05-07T12:55:03.227Z,4.58
2019-05-07T12:57:29.703Z,6.60
2019-05-07T12:59:58.133Z,5.03
2019-05-07T13:02:40.021Z,3.35
2019-05-07T13:05:02.919Z,5.62
2019-05-07T13:07:34.140Z,4.65
2019-05-07T13:10:02.630Z,4.42
2019-05-07T13:12:28.932Z,4.75
2019-05-07T13:14:55.288Z,3.12
2019-05-07T13:17:22.422Z,4.47
2019-05-07T13:19:49.512Z,4.25
2019-05-07T13:22:15.888Z,5.60
2019-05-07T13:24:43.222Z,6.33
2019-05-07T13:27:09.895Z,5.20
2019-05-07T13:29:36.339Z,4.45
2019-05-07T13:32:03.039Z,4.65
2019-05-07T13:34:33.729Z,3.40
2019-05-07T13:37:02.658Z,4.05
2019-05-07T13:39:53.560Z,4.62
2019-05-07T13:42:38.563Z,4.03
2019-05-07T13:45:07.863Z,4.87
2019-05-07T13:47:35.739Z,3.70
2019-05-07T13:50:03.005Z,4.92
2019-05-07T13:52:29.282Z,4.62
2019-05-07T13:54:56.155Z,4.25
2019-05-07T13:57:23.008Z,8.08
2019-05-07T13:59:49.605Z,4.62
2019-05-07T14:02:18.134Z,6.37
2019-05-07T14:04:44.375Z,4.65
2019-05-07T14:07:12.623Z,6.08
2019-05-07T14:09:39.230Z,6.10
2019-05-07T14:12:05.580Z,5.45
2019-05-07T14:14:34.522Z,4.95
2019-05-07T14:17:01.941Z,4.33
2019-05-07T14:19:28.408Z,4.45
2019-05-07T14:21:54.709Z,4.90
2019-05-07T14:24:22.414Z,3.87
2019-05-07T14:26:49.098Z,4.60
2019-05-07T14:29:15.428Z,6.40
2019-05-07T14:31:42.630Z,5.50
2019-05-07T14:34:16.688Z,5.17
2019-05-07T14:37:01.937Z,4.00
2019-05-07T14:39:28.518Z,5.45
2019-05-07T14:41:56.724Z,5.45
2019-05-07T14:44:25.369Z,4.10
2019-05-07T14:46:54.435Z,4.78
2019-05-07T14:49:22.385Z,7.08
2019-05-07T14:51:48.693Z,5.20
2019-05-07T14:54:18.203Z,6.58
2019-05-07T14:56:43.500Z,6.42
2019-05-07T14:59:09.957Z,4.50
2019-05-07T15:01:36.596Z,6.22
2019-05-07T15:04:03.049Z,5.72
2019-05-07T15:06:29.614Z,5.62
2019-05-07T15:08:55.921Z,3.67
2019-05-07T15:11:22.300Z,5.90
2019-05-07T15:13:48.805Z,6.60
2019-05-07T15:16:15.171Z,4.90
2019-05-07T15:18:55.441Z,4.70
2019-05-07T15:21:22.015Z,4.12
2019-05-07T15:23:49.319Z,7.30
2019-05-07T15:26:15.905Z,6.20
2019-05-07T15:28:46.932Z,6.62
2019-05-07T15:31:15.362Z,4.58
2019-05-07T15:33:41.911Z,4.87
2019-05-07T15:36:08.464Z,6.47
2019-05-07T15:38:34.973Z,4.67
2019-05-07T15:41:02.212Z,7.58
2019-05-07T15:43:29.263Z,4.47
2019-05-07T15:45:55.541Z,4.80
2019-05-07T15:48:22.737Z,5.87
2019-05-07T15:50:48.988Z,6.58
2019-05-07T15:53:21.921Z,4.00
2019-05-07T15:55:48.354Z,4.83
2019-05-07T15:58:14.698Z,5.83
2019-05-07T16:00:42.551Z,4.72
2019-05-07T16:03:14.031Z,5.45
2019-05-07T16:05:42.245Z,4.70
2019-05-07T16:08:12.344Z,6.30
2019-05-07T16:10:38.644Z,4.35
2019-05-07T16:13:06.508Z,5.62
2019-05-07T16:18:32.547Z,7.17
2019-05-07T16:20:58.810Z,5.03
2019-05-07T16:23:25.106Z,5.22
2019-05-07T16:25:52.827Z,4.85
2019-05-07T16:28:19.340Z,4.85
2019-05-07T16:30:45.602Z,5.00
2019-05-07T16:33:12.803Z,5.90
2019-05-07T16:35:39.384Z,7.00
2019-05-07T16:38:06.189Z,4.45
2019-05-07T16:40:32.785Z,4.28
2019-05-07T16:42:59.167Z,4.33
2019-05-07T16:45:25.713Z,6.33
2019-05-07T16:47:52.260Z,7.03
2019-05-07T16:50:22.199Z,5.55
2019-05-07T16:52:48.583Z,6.00
2019-05-07T16:55:14.948Z,5.10
2019-05-07T16:57:46.057Z,5.15
2019-05-07T17:00:18.089Z,6.80
2019-05-07T17:02:48.975Z,4.95
2019-05-07T17:05:15.695Z,6.45
2019-05-07T17:07:44.186Z,5.53
2019-05-07T17:10:11.718Z,4.75
2019-05-07T17:12:41.711Z,5.58
2019-05-07T17:15:08.319Z,9.53
2019-05-07T17:17:34.782Z,4.70
2019-05-07T17:20:02.720Z,4.78
2019-05-07T17:22:29.448Z,4.33
2019-05-07T17:24:55.720Z,5.28
2019-05-07T17:27:22.709Z,5.35
2019-05-07T17:29:49.128Z,5.03
2019-05-07T17:32:15.662Z,3.67
2019-05-07T17:34:42.151Z,2.72
2019-05-07T17:37:08.557Z,5.05
2019-05-07T17:39:34.790Z,7.03
2019-05-07T17:42:02.512Z,6.97
2019-05-07T17:44:29.061Z,5.95
2019-05-07T17:46:55.571Z,5.92
2019-05-07T17:49:21.975Z,4.65
2019-05-07T17:51:48.206Z,7.85
2019-05-07T17:54:15.926Z,4.15
2019-05-07T17:56:42.393Z,7.45
2019-05-07T17:59:09.340Z,7.47
2019-05-07T18:01:37.691Z,5.37
2019-05-07T18:04:04.159Z,4.12
2019-05-07T18:06:32.120Z,14.28
2019-05-07T18:08:58.682Z,10.03
2019-05-07T18:11:24.966Z,5.28
2019-05-07T18:13:51.850Z,9.95
2019-05-07T18:16:22.134Z,4.03
2019-05-07T18:18:48.244Z,3.70
2019-05-07T18:21:14.726Z,2.98
2019-05-07T18:23:41.026Z,4.12
2019-05-07T18:26:07.348Z,4.97
2019-05-07T18:28:33.583Z,5.30
2019-05-07T18:31:01.864Z,5.75
2019-05-07T18:33:33.615Z,5.72
2019-05-07T18:35:59.944Z,6.20
2019-05-07T18:38:26.202Z,5.97
2019-05-07T18:40:52.864Z,8.08
2019-05-07T18:43:19.402Z,5.10
2019-05-07T18:45:45.773Z,5.92
2019-05-07T18:48:12.358Z,5.58
2019-05-07T18:50:38.768Z,6.42
2019-05-07T18:53:05.117Z,5.42
2019-05-07T18:55:33.062Z,4.62
2019-05-07T18:57:59.650Z,7.30
2019-05-07T19:00:31.783Z,5.87
2019-05-07T19:02:58.530Z,4.97
2019-05-07T19:05:25.080Z,5.62
2019-05-07T19:08:04.614Z,5.72
2019-05-07T19:10:22.009Z,5.47
2019-05-07T19:12:48.723Z,5.78
2019-05-07T19:15:15.338Z,7.92
2019-05-07T19:17:42.750Z,7.90
2019-05-07T19:20:12.264Z,5.62
2019-05-07T19:22:39.347Z,8.58
2019-05-07T19:25:05.848Z,5.80
2019-05-07T19:27:32.801Z,8.63
2019-05-07T19:29:59.231Z,7.42
2019-05-07T19:32:25.869Z,7.30
2019-05-07T19:34:53.398Z,8.03
2019-05-07T19:37:22.249Z,8.55
2019-05-07T19:39:48.316Z,8.38
2019-05-07T19:42:14.845Z,7.20
2019-05-07T19:44:43.471Z,9.58
2019-05-07T19:47:14.314Z,7.00
2019-05-07T19:49:38.230Z,8.88
2019-05-07T19:52:04.900Z,9.45
2019-05-07T19:54:32.531Z,6.72
2019-05-07T19:56:59.313Z,8.90
2019-05-07T19:59:25.691Z,7.75
2019-05-07T20:01:54.327Z,8.30
2019-05-07T20:04:28.672Z,8.03
2019-05-07T20:06:58.368Z,9.18
2019-05-07T20:09:26.987Z,8.03
2019-05-07T20:11:53.521Z,8.28
2019-05-07T20:14:22.119Z,7.45
2019-05-07T20:16:48.260Z,8.43
2019-05-07T20:19:15.016Z,5.45
2019-05-07T20:21:41.678Z,5.53
2019-05-07T20:24:08.580Z,6.83
2019-05-07T20:26:35.027Z,7.28
2019-05-07T20:29:03.081Z,6.80
2019-05-07T20:31:29.550Z,7.20
2019-05-07T20:33:55.849Z,7.20
2019-05-07T20:36:22.329Z,5.35
2019-05-07T20:38:48.819Z,7.35
2019-05-07T20:41:16.591Z,7.92
2019-05-07T20:43:43.100Z,6.50
2019-05-07T20:46:12.137Z,6.17
2019-05-07T20:48:38.808Z,6.67
2019-05-07T20:51:05.690Z,6.20
2019-05-07T20:53:52.249Z,5.78
2019-05-07T20:56:26.891Z,7.53
2019-05-07T20:58:54.633Z,5.70
2019-05-07T21:01:22.023Z,5.53
2019-05-07T21:03:48.768Z,6.58
2019-05-07T21:06:15.074Z,6.50
2019-05-07T21:08:42.793Z,8.73
2019-05-07T21:11:09.197Z,6.80
2019-05-07T21:13:35.961Z,5.42
2019-05-07T21:16:03.268Z,5.72
2019-05-07T21:18:29.825Z,5.30
2019-05-07T21:20:56.271Z,9.05
2019-05-07T21:23:23.321Z,6.87
2019-05-07T21:25:49.902Z,6.50
2019-05-07T21:28:16.745Z,7.72
2019-05-07T21:30:43.123Z,7.75
2019-05-07T21:33:11.813Z,7.87
2019-05-07T21:35:37.679Z,5.97
2019-05-07T21:38:04.044Z,5.85
2019-05-07T21:40:32.084Z,5.75
2019-05-07T21:42:58.561Z,8.03
2019-05-07T21:45:24.940Z,7.35
2019-05-07T21:47:52.072Z,6.17
2019-05-07T21:50:21.787Z,5.60
2019-05-07T21:52:55.993Z,5.75
2019-05-07T21:55:27.145Z,6.75
2019-05-07T21:58:07.184Z,6.17
2019-05-07T22:00:38.415Z,6.53
2019-05-07T22:03:09.566Z,5.40
2019-05-07T22:05:36.013Z,5.17
2019-05-07T22:08:02.535Z,4.22
2019-05-07T22:10:28.874Z,5.30
2019-05-07T22:12:55.094Z,6.12
2019-05-07T22:15:22.441Z,6.58
2019-05-07T22:17:48.775Z,5.37
2019-05-07T22:20:14.933Z,5.33
2019-05-07T22:22:42.784Z,6.37
2019-05-07T22:25:09.483Z,5.83
2019-05-07T22:27:55.599Z,6.58
2019-05-07T22:30:24.258Z,6.67
2019-05-07T22:32:56.054Z,4.28
2019-05-07T22:35:29.971Z,7.55
2019-05-07T22:37:56.138Z,6.40
2019-05-07T22:40:22.654Z,8.73
2019-05-07T22:42:49.109Z,6.12
2019-05-07T22:45:15.674Z,10.23
2019-05-07T22:47:42.082Z,7.03
2019-05-07T22:50:08.676Z,6.22
2019-05-07T22:52:35.015Z,4.62
2019-05-07T22:55:01.841Z,6.42
2019-05-07T22:57:32.438Z,6.25
2019-05-07T22:59:58.504Z,4.80
2019-05-07T23:02:24.760Z,7.70
2019-05-07T23:04:52.089Z,7.17
2019-05-07T23:07:18.493Z,6.28
2019-05-07T23:09:45.045Z,6.17
2019-05-07T23:12:12.429Z,6.85
2019-05-07T23:14:38.716Z,4.80
2019-05-07T23:17:04.986Z,5.70
2019-05-07T23:19:32.661Z,5.37
2019-05-07T23:21:59.126Z,5.72
2019-05-07T23:24:25.388Z,7.20
2019-05-07T23:26:53.623Z,6.10
2019-05-07T23:29:22.208Z,6.15
2019-05-07T23:31:47.918Z,4.85
2019-05-07T23:34:14.216Z,6.33
2019-05-07T23:36:42.194Z,6.37
2019-05-07T23:39:11.907Z,6.37
2019-05-07T23:41:46.029Z,6.95
2019-05-07T23:44:14.324Z,6.25
2019-05-07T23:46:42.613Z,6.55
2019-05-07T23:49:08.874Z,5.35
2019-05-07T23:51:35.580Z,6.97
2019-05-07T23:54:03.851Z,7.55
2019-05-07T23:56:30.110Z,6.17
2019-05-07T23:58:56.554Z,7.80
